createdAt,value
2022-11-07T00:02:14.085Z,20.90
2022-11-07T00:04:42.465Z,21.40
2022-11-07T00:07:11.733Z,21.30
2022-11-07T00:09:41.151Z,20.00
2022-11-07T00:12:10.176Z,22.40
2022-11-07T00:14:38.643Z,21.00
2022-11-07T00:17:08.070Z,20.50
2022-11-07T00:19:36.310Z,19.00
2022-11-07T00:22:04.550Z,23.20
2022-11-07T00:24:32.846Z,21.20
2022-11-07T00:27:01.254Z,23.00
2022-11-07T00:29:29.581Z,21.80
2022-11-07T00:31:59.808Z,20.60
2022-11-07T00:34:28.053Z,22.00
2022-11-07T00:36:56.340Z,21.80
2022-11-07T00:39:24.647Z,19.10
2022-11-07T00:41:52.941Z,18.90
2022-11-07T00:44:21.401Z,15.90
2022-11-07T00:46:49.857Z,16.80
2022-11-07T00:49:18.106Z,15.90
2022-11-07T00:51:46.465Z,15.80
2022-11-07T00:54:14.738Z,15.50
2022-11-07T00:56:42.990Z,17.40
2022-11-07T00:59:11.302Z,17.30
2022-11-07T01:01:39.875Z,18.20
2022-11-07T01:04:31.512Z,17.90
2022-11-07T01:06:59.970Z,17.90
2022-11-07T01:09:28.325Z,17.70
2022-11-07T01:11:56.637Z,18.30
2022-11-07T01:14:25.193Z,16.60
2022-11-07T01:16:53.544Z,17.10
2022-11-07T01:19:22.097Z,15.10
2022-11-07T01:21:51.333Z,16.00
2022-11-07T01:24:19.620Z,16.10
2022-11-07T01:26:48.287Z,15.60
2022-11-07T01:29:18.301Z,15.70
2022-11-07T01:31:47.651Z,15.70
2022-11-07T01:34:17.934Z,16.50
2022-11-07T01:36:46.427Z,17.00
2022-11-07T01:39:14.826Z,17.20
2022-11-07T01:41:43.172Z,16.00
2022-11-07T01:44:11.429Z,17.40
2022-11-07T01:46:43.004Z,18.00
2022-11-07T01:49:13.940Z,16.60
2022-11-07T01:52:33.899Z,16.20
2022-11-07T01:55:22.172Z,17.80
2022-11-07T01:57:58.650Z,16.00
2022-11-07T02:00:41.904Z,15.30
2022-11-07T02:03:15.601Z,16.50
2022-11-07T02:06:01.665Z,16.20
2022-11-07T02:11:02.910Z,16.50
2022-11-07T02:13:32.942Z,16.30
2022-11-07T02:16:04.381Z,16.40
2022-11-07T02:18:37.081Z,16.90
2022-11-07T02:21:18.251Z,17.70
2022-11-07T02:23:58.915Z,18.00
2022-11-07T02:26:28.970Z,16.30
2022-11-07T02:28:58.599Z,17.80
2022-11-07T02:31:26.850Z,16.20
2022-11-07T02:33:55.188Z,17.90
2022-11-07T02:36:24.628Z,19.30
2022-11-07T02:38:59.000Z,17.80
2022-11-07T02:41:35.068Z,18.50
2022-11-07T02:44:09.992Z,18.30
2022-11-07T02:46:39.792Z,19.20
2022-11-07T02:49:08.664Z,20.00
2022-11-07T02:51:36.932Z,17.10
2022-11-07T02:54:05.416Z,20.50
2022-11-07T02:56:33.636Z,19.50
2022-11-07T02:59:02.590Z,18.60
2022-11-07T03:01:31.047Z,19.70
2022-11-07T03:03:59.594Z,17.90
2022-11-07T03:06:27.893Z,16.00
2022-11-07T03:08:56.229Z,19.60
2022-11-07T03:11:24.554Z,18.30
2022-11-07T03:13:54.723Z,19.80
2022-11-07T03:16:23.036Z,19.70
2022-11-07T03:18:51.316Z,19.40
2022-11-07T03:21:19.665Z,19.20
2022-11-07T03:23:47.956Z,19.00
2022-11-07T03:26:16.208Z,20.40
2022-11-07T03:28:45.752Z,19.30
2022-11-07T03:31:14.056Z,20.70
2022-11-07T03:33:42.366Z,19.80
2022-11-07T03:36:10.651Z,20.10
2022-11-07T03:38:38.978Z,20.20
2022-11-07T03:41:07.282Z,20.00
2022-11-07T03:43:35.609Z,18.70
2022-11-07T03:46:03.932Z,20.60
2022-11-07T03:48:32.175Z,19.40
2022-11-07T03:51:00.465Z,20.80
2022-11-07T03:53:28.878Z,19.80
2022-11-07T03:55:57.645Z,19.90
2022-11-07T03:58:26.572Z,19.60
2022-11-07T04:00:54.857Z,20.40
2022-11-07T04:03:23.162Z,20.80
2022-11-07T04:05:51.593Z,20.20
2022-11-07T04:08:20.436Z,19.80
2022-11-07T04:10:48.768Z,19.50
2022-11-07T04:13:35.677Z,20.00
2022-11-07T04:16:14.953Z,20.60
2022-11-07T04:18:49.264Z,19.20
2022-11-07T04:21:17.618Z,18.50
2022-11-07T04:23:45.892Z,18.30
2022-11-07T04:26:32.716Z,18.80
2022-11-07T04:29:01.075Z,18.20
2022-11-07T04:31:29.840Z,18.20
2022-11-07T04:33:58.169Z,18.40
2022-11-07T04:36:26.578Z,17.70
2022-11-07T04:38:54.862Z,19.30
2022-11-07T04:41:24.791Z,18.10
2022-11-07T04:43:53.137Z,19.30
2022-11-07T04:46:23.383Z,20.10
2022-11-07T04:48:51.651Z,17.50
2022-11-07T04:51:22.834Z,18.30
2022-11-07T04:53:51.145Z,17.90
2022-11-07T04:56:19.464Z,18.20
2022-11-07T04:58:47.809Z,18.20
2022-11-07T05:01:16.076Z,17.90
2022-11-07T05:03:44.589Z,17.70
2022-11-07T05:06:14.889Z,17.60
2022-11-07T05:08:43.175Z,17.20
2022-11-07T05:11:15.058Z,18.40
2022-11-07T05:13:43.359Z,17.40
2022-11-07T05:16:19.910Z,17.20
2022-11-07T05:18:48.191Z,17.30
2022-11-07T05:21:16.564Z,17.90
2022-11-07T05:23:44.799Z,16.90
2022-11-07T05:26:13.082Z,17.00
2022-11-07T05:28:41.447Z,15.80
2022-11-07T05:31:15.599Z,17.40
2022-11-07T05:33:44.497Z,15.90
2022-11-07T05:36:15.668Z,17.00
2022-11-07T05:38:47.041Z,15.80
2022-11-07T05:41:17.310Z,15.20
2022-11-07T05:43:46.717Z,15.30
2022-11-07T05:46:15.443Z,14.80
2022-11-07T05:48:43.736Z,15.80
2022-11-07T05:51:12.070Z,15.20
2022-11-07T05:53:40.446Z,15.70
2022-11-07T05:56:08.767Z,16.40
2022-11-07T05:58:37.314Z,15.60
2022-11-07T06:01:06.626Z,14.10
2022-11-07T06:03:34.864Z,15.20
2022-11-07T06:06:03.226Z,15.40
2022-11-07T06:08:31.628Z,15.00
2022-11-07T06:11:06.368Z,15.60
2022-11-07T06:13:34.832Z,15.70
2022-11-07T06:16:03.326Z,14.00
2022-11-07T06:18:31.845Z,15.00
2022-11-07T06:21:02.041Z,14.80
2022-11-07T06:23:30.272Z,25.70
2022-11-07T06:25:58.664Z,18.00
2022-11-07T06:28:26.979Z,15.10
2022-11-07T06:30:59.971Z,15.50
2022-11-07T06:33:30.135Z,20.10
2022-11-07T06:36:12.123Z,16.40
2022-11-07T06:38:40.773Z,15.90
2022-11-07T06:41:12.608Z,16.30
2022-11-07T06:43:41.675Z,14.80
2022-11-07T06:46:13.323Z,15.00
2022-11-07T06:48:41.865Z,15.80
2022-11-07T06:51:11.071Z,15.30
2022-11-07T06:53:39.431Z,21.90
2022-11-07T06:56:10.870Z,18.30
2022-11-07T06:58:39.124Z,31.70
2022-11-07T07:01:10.088Z,21.80
2022-11-07T07:03:38.930Z,19.70
2022-11-07T07:06:11.838Z,26.80
2022-11-07T07:08:41.232Z,18.80
2022-11-07T07:11:12.235Z,18.20
2022-11-07T07:13:41.923Z,16.60
2022-11-07T07:16:10.565Z,16.50
2022-11-07T07:18:38.820Z,15.90
2022-11-07T07:21:10.698Z,15.00
2022-11-07T07:23:40.111Z,16.70
2022-11-07T07:26:13.837Z,17.50
2022-11-07T07:28:43.399Z,16.10
2022-11-07T07:31:14.796Z,17.90
2022-11-07T07:33:45.083Z,16.00
2022-11-07T07:36:19.280Z,18.30
2022-11-07T07:38:50.648Z,16.70
2022-11-07T07:41:19.233Z,15.70
2022-11-07T07:43:48.022Z,16.20
2022-11-07T07:46:21.527Z,15.90
2022-11-07T07:48:49.965Z,16.30
2022-11-07T07:51:18.324Z,16.50
2022-11-07T07:53:46.567Z,13.90
2022-11-07T07:56:15.658Z,15.30
2022-11-07T07:58:43.950Z,14.50
2022-11-07T08:01:12.308Z,14.00
2022-11-07T08:04:00.075Z,13.80
2022-11-07T08:06:29.581Z,13.90
2022-11-07T08:08:58.474Z,12.70
2022-11-07T08:11:27.925Z,14.00
2022-11-07T08:14:00.973Z,14.10
2022-11-07T08:16:30.151Z,14.30
2022-11-07T08:18:58.489Z,13.80
2022-11-07T08:21:26.778Z,12.80
2022-11-07T08:23:56.577Z,14.20
2022-11-07T08:26:25.682Z,14.30
2022-11-07T08:28:55.277Z,13.00
2022-11-07T08:31:23.756Z,14.10
2022-11-07T08:33:52.032Z,15.90
2022-11-07T08:36:20.350Z,26.30
2022-11-07T08:38:48.673Z,19.00
2022-11-07T08:41:21.763Z,51.00
2022-11-07T08:43:50.715Z,57.60
2022-11-07T08:46:18.988Z,43.00
2022-11-07T08:48:47.271Z,44.00
2022-11-07T08:51:15.653Z,17.10
2022-11-07T08:53:44.025Z,13.90
2022-11-07T08:56:12.463Z,14.20
2022-11-07T08:58:40.816Z,11.80
2022-11-07T09:01:10.221Z,12.40
2022-11-07T09:03:52.974Z,12.90
2022-11-07T09:06:23.615Z,13.20
2022-11-07T09:08:51.775Z,23.60
2022-11-07T09:11:22.121Z,15.00
2022-11-07T09:13:50.575Z,14.80
2022-11-07T09:16:19.667Z,21.80
2022-11-07T09:18:49.724Z,16.10
2022-11-07T09:21:22.364Z,14.60
2022-11-07T09:23:52.480Z,17.60
2022-11-07T09:26:21.368Z,13.50
2022-11-07T09:28:52.948Z,11.20
2022-11-07T09:31:23.619Z,12.50
2022-11-07T09:33:51.876Z,9.60
2022-11-07T09:36:22.360Z,10.40
2022-11-07T09:38:50.972Z,10.00
2022-11-07T09:41:22.322Z,12.00
2022-11-07T09:43:59.641Z,10.30
2022-11-07T09:46:45.758Z,10.10
2022-11-07T09:49:17.323Z,10.10
2022-11-07T09:52:04.596Z,9.30
2022-11-07T09:54:38.941Z,9.80
2022-11-07T09:57:17.276Z,9.00
2022-11-07T09:59:54.079Z,8.70
2022-11-07T10:02:27.699Z,6.20
2022-11-07T10:05:02.566Z,7.60
2022-11-07T10:07:42.439Z,6.90
2022-11-07T10:10:38.638Z,5.90
2022-11-07T10:13:16.332Z,6.10
2022-11-07T10:16:01.474Z,5.20
2022-11-07T10:19:05.410Z,6.00
2022-11-07T10:21:38.377Z,6.10
2022-11-07T10:24:29.980Z,6.20
2022-11-07T10:26:58.740Z,6.10
2022-11-07T10:29:44.100Z,5.40
2022-11-07T10:32:18.426Z,9.10
2022-11-07T10:34:54.705Z,6.90
2022-11-07T10:37:23.790Z,6.40
2022-11-07T10:39:52.155Z,5.20
2022-11-07T10:42:27.373Z,5.10
2022-11-07T10:44:59.150Z,6.80
2022-11-07T10:47:30.737Z,5.40
2022-11-07T10:50:02.609Z,6.10
2022-11-07T10:52:31.170Z,6.90
2022-11-07T10:55:09.096Z,6.10
2022-11-07T10:57:37.442Z,5.80
2022-11-07T11:00:22.654Z,6.00
2022-11-07T11:05:25.420Z,5.30
2022-11-07T11:08:08.215Z,8.30
2022-11-07T11:10:39.569Z,21.20
2022-11-07T11:13:24.834Z,7.30
2022-11-07T11:15:53.277Z,6.20
2022-11-07T11:18:21.710Z,5.30
2022-11-07T11:21:03.293Z,5.60
2022-11-07T11:23:36.805Z,5.10
2022-11-07T11:26:16.573Z,5.00
2022-11-07T11:28:50.445Z,5.40
2022-11-07T11:31:18.764Z,4.80
2022-11-07T11:34:22.006Z,4.70
2022-11-07T11:37:18.925Z,5.50
2022-11-07T11:39:58.891Z,5.40
2022-11-07T11:42:50.728Z,6.30
2022-11-07T11:45:33.537Z,6.40
2022-11-07T11:48:26.869Z,6.00
2022-11-07T11:51:10.333Z,5.60
2022-11-07T11:53:38.650Z,6.40
2022-11-07T11:56:06.919Z,6.20
2022-11-07T11:58:38.239Z,9.00
2022-11-07T12:01:34.934Z,8.50
2022-11-07T12:04:34.734Z,9.40
2022-11-07T12:07:20.801Z,8.20
2022-11-07T12:10:01.057Z,8.50
2022-11-07T12:12:58.696Z,9.10
2022-11-07T12:15:31.305Z,9.50
2022-11-07T12:18:28.626Z,10.20
2022-11-07T12:21:22.157Z,10.10
2022-11-07T12:24:16.834Z,11.20
2022-11-07T12:26:58.029Z,11.30
2022-11-07T12:29:54.854Z,11.20
2022-11-07T12:32:58.708Z,11.50
2022-11-07T12:35:27.027Z,10.80
2022-11-07T12:38:19.149Z,11.60
2022-11-07T12:41:08.888Z,9.90
2022-11-07T12:43:50.161Z,10.30
2022-11-07T12:46:49.306Z,10.50
2022-11-07T12:49:41.483Z,12.20
2022-11-07T12:52:46.113Z,11.40
2022-11-07T12:55:25.516Z,9.90
2022-11-07T12:57:55.899Z,11.00
2022-11-07T13:00:30.313Z,10.90
2022-11-07T13:03:22.365Z,9.70
2022-11-07T13:06:09.283Z,10.20
2022-11-07T13:08:55.291Z,9.30
2022-11-07T13:11:56.506Z,8.30
2022-11-07T13:14:32.539Z,9.30
2022-11-07T13:17:03.670Z,9.00
2022-11-07T13:19:37.985Z,8.10
2022-11-07T13:22:19.402Z,7.40
2022-11-07T13:25:16.949Z,7.40
2022-11-07T13:28:00.632Z,6.50
2022-11-07T13:30:40.323Z,6.00
2022-11-07T13:33:29.503Z,6.80
2022-11-07T13:36:12.010Z,6.50
2022-11-07T13:38:50.368Z,6.70
2022-11-07T13:41:19.879Z,5.80
2022-11-07T13:44:04.849Z,6.30
2022-11-07T13:46:46.012Z,6.40
2022-11-07T13:49:27.293Z,6.30
2022-11-07T13:52:01.909Z,6.10
2022-11-07T13:54:55.335Z,5.40
2022-11-07T13:57:47.635Z,6.10
2022-11-07T14:00:21.312Z,6.20
2022-11-07T14:02:52.932Z,6.50
2022-11-07T14:05:24.080Z,9.00
2022-11-07T14:08:02.673Z,7.70
2022-11-07T14:10:43.111Z,8.60
2022-11-07T14:13:34.703Z,9.00
2022-11-07T14:16:17.645Z,12.50
2022-11-07T14:18:54.760Z,10.80
2022-11-07T14:21:28.424Z,8.60
2022-11-07T14:23:57.319Z,8.80
2022-11-07T14:26:34.307Z,8.40
2022-11-07T14:29:04.075Z,7.90
2022-11-07T14:31:37.827Z,6.80
2022-11-07T14:34:26.596Z,6.20
2022-11-07T14:37:01.526Z,5.40
2022-11-07T14:39:33.159Z,6.20
2022-11-07T14:42:03.485Z,5.80
2022-11-07T14:44:56.334Z,5.90
2022-11-07T14:47:35.280Z,5.60
2022-11-07T14:50:05.573Z,5.90
2022-11-07T14:52:47.723Z,7.20
2022-11-07T14:55:47.393Z,7.50
2022-11-07T14:58:18.495Z,7.80
2022-11-07T15:01:11.447Z,6.30
2022-11-07T15:03:53.432Z,5.20
2022-11-07T15:06:28.516Z,5.50
2022-11-07T15:09:09.065Z,5.80
2022-11-07T15:11:40.477Z,5.80
2022-11-07T15:14:35.341Z,11.30
2022-11-07T15:17:07.919Z,11.10
2022-11-07T15:19:36.419Z,11.50
2022-11-07T15:22:06.593Z,7.00
2022-11-07T15:24:42.102Z,6.90
2022-11-07T15:27:14.107Z,6.50
2022-11-07T15:29:52.439Z,15.50
2022-11-07T15:32:24.600Z,18.70
2022-11-07T15:35:37.692Z,17.80
2022-11-07T15:38:00.207Z,15.40
2022-11-07T15:40:29.984Z,14.90
2022-11-07T15:42:58.961Z,14.10
2022-11-07T15:45:27.339Z,13.90
2022-11-07T15:47:55.718Z,15.90
2022-11-07T15:50:25.668Z,16.60
2022-11-07T15:52:55.059Z,17.90
2022-11-07T15:55:24.081Z,16.50
2022-11-07T15:57:56.156Z,18.20
2022-11-07T16:00:26.461Z,24.60
2022-11-07T16:02:54.923Z,30.70
2022-11-07T16:05:23.289Z,27.90
2022-11-07T16:07:51.805Z,29.70
2022-11-07T16:10:27.062Z,30.10
2022-11-07T16:12:55.345Z,28.60
2022-11-07T16:15:26.365Z,37.90
2022-11-07T16:17:56.623Z,32.40
2022-11-07T16:20:24.932Z,48.60
2022-11-07T16:22:53.230Z,54.40
2022-11-07T16:25:24.554Z,49.00
2022-11-07T16:27:56.425Z,47.20
2022-11-07T16:30:25.299Z,43.20
2022-11-07T16:32:53.597Z,35.50
2022-11-07T16:35:22.298Z,31.10
2022-11-07T16:37:50.748Z,28.50
2022-11-07T16:40:19.944Z,26.10
2022-11-07T16:42:48.299Z,28.40
2022-11-07T16:45:22.477Z,40.80
2022-11-07T16:47:50.799Z,42.50
2022-11-07T16:50:19.141Z,46.60
2022-11-07T16:52:47.433Z,48.00
2022-11-07T16:55:18.425Z,52.70
2022-11-07T16:57:47.775Z,59.70
2022-11-07T17:00:18.776Z,61.20
2022-11-07T17:02:47.355Z,51.90
2022-11-07T17:05:15.954Z,47.00
2022-11-07T17:07:44.827Z,49.70
2022-11-07T17:10:16.997Z,43.60
2022-11-07T17:12:45.425Z,41.90
2022-11-07T17:15:13.803Z,47.90
2022-11-07T17:17:42.365Z,45.70
2022-11-07T17:20:41.092Z,47.20
2022-11-07T17:23:09.909Z,55.80
2022-11-07T17:25:39.167Z,84.00
2022-11-07T17:28:08.067Z,104.30
2022-11-07T17:30:36.465Z,109.70
2022-11-07T17:33:05.167Z,99.30
2022-11-07T17:35:34.162Z,80.60
2022-11-07T17:38:02.914Z,76.80
2022-11-07T17:40:34.966Z,92.40
2022-11-07T17:43:03.246Z,108.50
2022-11-07T17:45:31.572Z,96.70
2022-11-07T17:47:59.866Z,80.80
2022-11-07T17:50:28.356Z,81.50
2022-11-07T17:52:56.828Z,66.00
2022-11-07T17:55:25.703Z,64.10
2022-11-07T17:57:54.625Z,55.50
2022-11-07T18:00:25.053Z,58.00
2022-11-07T18:02:53.817Z,50.30
2022-11-07T18:05:25.575Z,46.50
2022-11-07T18:10:25.442Z,44.30
2022-11-07T18:12:57.101Z,38.90
2022-11-07T18:15:25.729Z,41.20
2022-11-07T18:17:54.052Z,42.60
2022-11-07T18:20:22.341Z,40.50
2022-11-07T18:22:50.707Z,41.20
2022-11-07T18:25:19.059Z,44.30
2022-11-07T18:27:48.912Z,44.30
2022-11-07T18:30:17.957Z,56.60
2022-11-07T18:32:46.194Z,52.40
2022-11-07T18:35:14.598Z,60.60
2022-11-07T18:37:43.081Z,57.70
2022-11-07T18:40:12.190Z,55.30
2022-11-07T18:42:47.769Z,57.40
2022-11-07T18:45:20.378Z,53.40
2022-11-07T18:47:48.719Z,46.50
2022-11-07T18:50:17.065Z,49.20
2022-11-07T18:52:45.993Z,47.60
2022-11-07T18:55:14.485Z,45.70
2022-11-07T18:57:42.869Z,45.90
2022-11-07T19:00:13.662Z,46.10
2022-11-07T19:02:42.387Z,43.80
2022-11-07T19:05:10.694Z,38.90
2022-11-07T19:07:43.112Z,37.00
2022-11-07T19:10:13.441Z,37.50
2022-11-07T19:12:42.430Z,38.60
2022-11-07T19:15:11.236Z,34.90
2022-11-07T19:17:39.843Z,31.60
2022-11-07T19:20:08.764Z,32.20
2022-11-07T19:22:37.128Z,30.40
2022-11-07T19:25:05.733Z,30.00
2022-11-07T19:27:35.036Z,28.30
2022-11-07T19:30:06.731Z,27.10
2022-11-07T19:32:35.110Z,28.80
2022-11-07T19:35:03.551Z,30.70
2022-11-07T19:37:31.815Z,30.10
2022-11-07T19:40:00.174Z,29.70
2022-11-07T19:42:28.907Z,30.20
2022-11-07T19:44:57.329Z,30.60
2022-11-07T19:47:25.621Z,28.80
2022-11-07T19:49:54.087Z,29.10
2022-11-07T19:52:22.376Z,26.90
2022-11-07T19:54:51.683Z,28.20
2022-11-07T19:57:20.108Z,29.20
2022-11-07T19:59:48.371Z,24.10
2022-11-07T20:02:34.557Z,25.30
2022-11-07T20:05:06.146Z,28.30
2022-11-07T20:07:34.743Z,26.10
2022-11-07T20:10:03.158Z,29.80
2022-11-07T20:12:31.406Z,26.20
2022-11-07T20:15:00.683Z,26.30
2022-11-07T20:17:29.022Z,24.30
2022-11-07T20:19:59.983Z,26.50
2022-11-07T20:22:32.359Z,31.60
2022-11-07T20:25:00.684Z,32.10
2022-11-07T20:27:28.967Z,33.70
2022-11-07T20:29:58.610Z,29.70
2022-11-07T20:32:27.881Z,31.30
2022-11-07T20:34:56.212Z,29.10
2022-11-07T20:37:24.642Z,30.80
2022-11-07T20:39:52.935Z,28.20
2022-11-07T20:42:21.343Z,30.60
2022-11-07T20:44:51.414Z,39.10
2022-11-07T20:47:19.708Z,32.80
2022-11-07T20:49:48.696Z,36.80
2022-11-07T20:52:17.073Z,33.20
2022-11-07T20:54:45.369Z,32.50
2022-11-07T20:57:13.614Z,29.70
2022-11-07T20:59:42.425Z,31.70
2022-11-07T21:02:13.115Z,28.20
2022-11-07T21:05:03.267Z,34.90
2022-11-07T21:07:29.738Z,33.90
2022-11-07T21:09:58.104Z,30.50
2022-11-07T21:12:26.407Z,26.40
2022-11-07T21:14:54.764Z,25.50
2022-11-07T21:17:23.076Z,22.40
2022-11-07T21:19:51.383Z,21.00
2022-11-07T21:22:19.643Z,17.50
2022-11-07T21:24:47.939Z,21.20
2022-11-07T21:27:16.177Z,23.10
2022-11-07T21:29:44.503Z,23.10
2022-11-07T21:32:12.851Z,37.30
2022-11-07T21:34:42.952Z,34.00
2022-11-07T21:37:11.225Z,24.50
2022-11-07T21:39:39.565Z,20.00
2022-11-07T21:42:07.823Z,17.90
2022-11-07T21:44:36.191Z,15.30
2022-11-07T21:47:04.564Z,16.20
2022-11-07T21:49:32.877Z,16.70
2022-11-07T21:52:01.158Z,13.90
2022-11-07T21:54:29.665Z,14.40
2022-11-07T21:56:57.934Z,13.30
2022-11-07T21:59:26.325Z,14.20
2022-11-07T22:01:55.588Z,12.60
2022-11-07T22:04:24.290Z,13.10
2022-11-07T22:06:52.794Z,14.00
2022-11-07T22:09:26.117Z,15.20
2022-11-07T22:12:00.424Z,13.30
2022-11-07T22:14:28.736Z,12.00
2022-11-07T22:16:57.190Z,12.40
2022-11-07T22:19:28.146Z,11.60
2022-11-07T22:21:56.475Z,11.30
2022-11-07T22:24:27.232Z,11.60
2022-11-07T22:26:56.208Z,10.20
2022-11-07T22:29:24.486Z,10.00
2022-11-07T22:31:52.836Z,10.20
2022-11-07T22:34:22.286Z,10.90
2022-11-07T22:36:53.300Z,12.50
2022-11-07T22:39:21.690Z,13.30
2022-11-07T22:41:49.982Z,12.80
2022-11-07T22:44:18.353Z,11.80
2022-11-07T22:46:46.796Z,10.20
2022-11-07T22:49:15.117Z,10.30
2022-11-07T22:51:43.385Z,9.90
2022-11-07T22:54:13.243Z,9.10
2022-11-07T22:56:41.611Z,9.50
2022-11-07T22:59:11.013Z,9.20
2022-11-07T23:01:41.612Z,8.60
2022-11-07T23:04:15.450Z,8.70
2022-11-07T23:06:44.799Z,9.60
2022-11-07T23:09:15.455Z,8.90
2022-11-07T23:11:46.261Z,11.20
2022-11-07T23:14:19.500Z,11.30
2022-11-07T23:16:51.176Z,10.30
2022-11-07T23:19:23.128Z,10.40
2022-11-07T23:21:53.753Z,10.50
2022-11-07T23:24:22.927Z,10.00
2022-11-07T23:26:51.651Z,9.80
2022-11-07T23:29:24.206Z,9.20
2022-11-07T23:31:53.352Z,9.30
2022-11-07T23:34:22.834Z,9.10
2022-11-07T23:36:52.328Z,9.50
2022-11-07T23:39:23.138Z,9.90
2022-11-07T23:41:51.998Z,10.60
2022-11-07T23:44:20.813Z,10.50
2022-11-07T23:47:07.632Z,10.50
2022-11-07T23:49:35.965Z,11.60
2022-11-07T23:52:05.202Z,11.60
2022-11-07T23:54:52.325Z,11.30
2022-11-07T23:57:20.669Z,10.30
